Chehalis, WA

1:13 PM PDT on May 23, 2017 (GMT -0700)
Chehalis-Centralia

Weather History for KCLS - October, 2013

Change the Weather History Date:

Tuesday, October 22, 2013

  Actual Average (KTDO) Record (KTDO)
Temperature  
Mean Temperature 52 °F -  
Max Temperature 62 °F 60 °F 76 °F (1969)
Min Temperature 42 °F 41 °F 28 °F (1981)
Degree Days  
Heating Degree Days 13    
Growing Degree Days 2 (Base 50)    
Moisture  
Dew Point 48 °F    
Average Humidity 90    
Maximum Humidity 100    
Minimum Humidity 68    
Precipitation  
Precipitation 0.00 in - - ()
Sea Level Pressure  
Sea Level Pressure 30.08 in    
Wind  
Wind Speed 5 mph (NNE)    
Max Wind Speed 9 mph    
Max Gust Speed -    
Visibility 7 miles    
Events Fog    
Averages and records for this station are not official NWS values.
T = Trace of Precipitation, MM = Missing Value Source: NWS Daily Summary

Daily Weather History Graph

Daily Weather History Graph

Search for Another Location

Airport or City:

Trip Planner

Search our weather history database for the weather conditions in past years. The results will help you decide how hot, cold, wet, or windy it might be!

Date:

Astronomy

Oct. 22, 2013 Rise Set
Actual Time 7:39 AM PDT 6:11 PM PDT
Civil Twilight 7:09 AM PDT 6:42 PM PDT
Nautical Twilight 6:33 AM PDT 7:18 PM PDT
Astronomical Twilight 5:58 AM PDT 7:53 PM PDT
Moon 8:47 PM PDT (10/22) 11:22 AM PDT (10/22)
Length of Visible Light 11h 33m
Length of Day
10h 31m
Waning Gibbous, 86% of the Moon is Illuminated
Oct 22
Waning Gibbous
Oct 26
Last Quarter
Nov 3
New
Nov 9
First Quarter
Nov 17
Full

Hourly Weather History & Observations

Time (PDT) Temp. Windchill Dew Point Humidity Pressure Visibility Wind Dir Wind Speed Gust Speed Precip Events Conditions
12:15 AM 48.2 °F - 46.4 °F 93% 30.11 in 3.0 mi NNE 6.9 mph - N/A   Overcast
12:35 AM 48.2 °F - 46.4 °F 93% 30.11 in 5.0 mi NNE 6.9 mph - N/A   Overcast
12:55 AM 48.2 °F - 46.4 °F 93% 30.11 in 3.0 mi NNE 5.8 mph - N/A   Overcast
1:15 AM 48.2 °F - 46.4 °F 93% 30.11 in 4.0 mi NNE 4.6 mph - N/A   Overcast
1:35 AM 46.4 °F 42.4 °F 46.4 °F 100% 30.11 in 3.0 mi NNE 8.1 mph - N/A   Overcast
1:55 AM 46.4 °F 43.5 °F 46.4 °F 100% 30.11 in 3.0 mi NNE 5.8 mph - N/A   Overcast
2:15 AM 46.4 °F 43.5 °F 46.4 °F 100% 30.11 in 3.0 mi NNE 5.8 mph - N/A   Overcast
2:35 AM 46.4 °F 43.5 °F 46.4 °F 100% 30.11 in 4.0 mi NNE 5.8 mph - N/A   Overcast
2:55 AM 46.4 °F 42.9 °F 46.4 °F 100% 30.11 in 3.0 mi NNE 6.9 mph - N/A   Overcast
3:15 AM 46.4 °F 42.9 °F 46.4 °F 100% 30.11 in 4.0 mi NNE 6.9 mph - N/A   Overcast
3:35 AM 46.4 °F 42.4 °F 46.4 °F 100% 30.11 in 4.0 mi NNE 8.1 mph - N/A   Overcast
3:55 AM 46.4 °F 41.9 °F 46.4 °F 100% 30.11 in 5.0 mi NNE 9.2 mph - N/A   Overcast
4:15 AM 48.2 °F - 46.4 °F 93% 30.11 in 5.0 mi NNE 4.6 mph - N/A   Overcast
4:35 AM 48.2 °F - 46.4 °F 93% 30.11 in 7.0 mi NNE 5.8 mph - N/A   Overcast
4:55 AM 48.2 °F - 48.2 °F 100% 30.11 in 8.0 mi North 3.5 mph - N/A   Overcast
5:15 AM 48.2 °F - 48.2 °F 100% 30.12 in 6.0 mi Calm Calm - N/A   Overcast
5:35 AM 48.2 °F - 46.4 °F 93% 30.12 in 9.0 mi NNE 5.8 mph - N/A   Overcast
5:55 AM 48.2 °F - 46.4 °F 93% 30.12 in 9.0 mi NE 4.6 mph - N/A   Overcast
6:15 AM 48.2 °F - 46.4 °F 93% 30.12 in 9.0 mi NE 5.8 mph - N/A   Overcast
6:35 AM 46.4 °F 42.9 °F 46.4 °F 100% 30.12 in 7.0 mi NE 6.9 mph - N/A   Overcast
6:55 AM 46.4 °F 42.9 °F 46.4 °F 100% 30.12 in 5.0 mi NE 6.9 mph - N/A   Overcast
7:15 AM 46.4 °F 42.9 °F 46.4 °F 100% 30.12 in 3.0 mi NE 6.9 mph - N/A   Overcast
7:35 AM 46.4 °F 42.9 °F 46.4 °F 100% 30.12 in 2.0 mi NE 6.9 mph - N/A   Overcast
7:55 AM 46.4 °F 43.5 °F 46.4 °F 100% 30.11 in 1.2 mi ENE 5.8 mph - N/A   Overcast
8:15 AM 46.4 °F 44.3 °F 46.4 °F 100% 30.12 in 0.5 mi NE 4.6 mph - N/A Fog Fog
8:35 AM 46.4 °F 44.3 °F 46.4 °F 100% 30.12 in 1.0 mi NE 4.6 mph - N/A   Overcast
8:55 AM 46.4 °F 42.4 °F 46.4 °F 100% 30.12 in 3.0 mi NE 8.1 mph - N/A   Overcast
9:15 AM 46.4 °F 44.3 °F 46.4 °F 100% 30.12 in 4.0 mi ENE 4.6 mph - N/A   Overcast
9:35 AM 46.4 °F 45.2 °F 46.4 °F 100% 30.12 in 4.0 mi NE 3.5 mph - N/A   Overcast
9:55 AM 46.4 °F 42.9 °F 46.4 °F 100% 30.12 in 8.0 mi NNE 6.9 mph - N/A   Overcast
10:15 AM 48.2 °F - 46.4 °F 93% 30.12 in 10.0 mi NE 6.9 mph - N/A   Overcast
10:35 AM 48.2 °F - 46.4 °F 93% 30.12 in 10.0 mi NNE 6.9 mph - N/A   Overcast
10:55 AM 48.2 °F - 46.4 °F 93% 30.11 in 10.0 mi NE 6.9 mph - N/A   Overcast
11:15 AM 50.0 °F - 46.4 °F 87% 30.11 in 10.0 mi NNE 5.8 mph - N/A   Overcast
11:35 AM 50.0 °F - 48.2 °F 94% 30.10 in 7.0 mi NE 6.9 mph - N/A   Overcast
11:55 AM 53.6 °F - 48.2 °F 82% 30.10 in 10.0 mi NE 3.5 mph - N/A   Scattered Clouds
12:15 PM 55.4 °F - 48.2 °F 77% 30.09 in 5.0 mi NNW 4.6 mph - N/A   Haze
12:35 PM 55.4 °F - 48.2 °F 77% 30.08 in 5.0 mi North 3.5 mph - N/A   Haze
12:55 PM 57.2 °F - 50.0 °F 77% 30.08 in 9.0 mi North 3.5 mph - N/A   Clear
1:15 PM 59.0 °F - 50.0 °F 72% 30.07 in 10.0 mi North 5.8 mph - N/A   Clear
1:35 PM 59.0 °F - 50.0 °F 72% 30.06 in 10.0 mi NNW 4.6 mph - N/A   Clear
1:55 PM 59.0 °F - 50.0 °F 72% 30.06 in 5.0 mi North 6.9 mph - N/A   Haze
2:15 PM 60.8 °F - 50.0 °F 68% 30.05 in 5.0 mi NNW 8.1 mph - N/A   Haze
2:35 PM 60.8 °F - 51.8 °F 72% 30.05 in 10.0 mi NNW 6.9 mph - N/A   Clear
2:55 PM 62.6 °F - 51.8 °F 68% 30.05 in 10.0 mi NNW 6.9 mph - N/A   Clear
3:15 PM 62.6 °F - 51.8 °F 68% 30.04 in 7.0 mi North 4.6 mph - N/A   Clear
3:35 PM 62.6 °F - 51.8 °F 68% 30.04 in 10.0 mi North 5.8 mph - N/A   Clear
3:55 PM 62.6 °F - 51.8 °F 68% 30.04 in 10.0 mi NNW 6.9 mph - N/A   Clear
4:15 PM 62.6 °F - 51.8 °F 68% 30.04 in 10.0 mi NNW 5.8 mph - N/A   Clear
4:35 PM 62.6 °F - 51.8 °F 68% 30.04 in 10.0 mi NNW 5.8 mph - N/A   Clear
4:55 PM 60.8 °F - 50.0 °F 68% 30.03 in 10.0 mi NNW 5.8 mph - N/A   Clear
5:15 PM 59.0 °F - 50.0 °F 72% 30.03 in 10.0 mi North 4.6 mph - N/A   Clear
5:35 PM 57.2 °F - 50.0 °F 77% 30.03 in 10.0 mi North 4.6 mph - N/A   Clear
5:55 PM 55.4 °F - 50.0 °F 82% 30.03 in 8.0 mi NNW 4.6 mph - N/A   Clear
6:15 PM 55.4 °F - 50.0 °F 82% 30.03 in 8.0 mi Calm Calm - N/A   Clear
6:35 PM 53.6 °F - 48.2 °F 82% 30.03 in 7.0 mi NNW 3.5 mph - N/A   Clear
6:55 PM 51.8 °F - 48.2 °F 88% 30.04 in 10.0 mi Calm Calm - N/A   Clear
7:15 PM 51.8 °F - 48.2 °F 88% 30.04 in 10.0 mi Calm Calm - N/A   Clear
7:55 PM 50.0 °F - 48.2 °F 94% 30.04 in 6.0 mi Calm Calm - N/A   Clear
8:15 PM 48.2 °F - 48.2 °F 100% 30.04 in 10.0 mi Calm Calm - N/A   Clear
8:35 PM 48.2 °F - 48.2 °F 100% 30.04 in 10.0 mi Calm Calm - N/A   Clear
8:55 PM 48.2 °F - 48.2 °F 100% 30.04 in 10.0 mi Calm Calm - N/A   Unknown
9:15 PM 48.2 °F - 46.4 °F 93% 30.05 in 9.0 mi Calm Calm - N/A   Unknown
9:35 PM 46.4 °F - 46.4 °F 100% 30.05 in 7.0 mi Calm Calm - N/A   Unknown
9:55 PM 46.4 °F - 46.4 °F 100% 30.05 in 6.0 mi Calm Calm - N/A   Clear
10:15 PM 46.4 °F - 44.6 °F 93% 30.05 in 9.0 mi Calm Calm - N/A   Clear
10:35 PM 44.6 °F - 44.6 °F 100% 30.05 in 5.0 mi Calm Calm - N/A   Clear
10:55 PM 44.6 °F - 44.6 °F 100% 30.05 in 2.0 mi Calm Calm - N/A   Mist
11:15 PM 42.8 °F - 42.8 °F 100% 30.05 in 4.0 mi Calm Calm - N/A   Partly Cloudy
11:35 PM 42.8 °F 41.1 °F 42.8 °F 100% 30.05 in 6.0 mi NNE 3.5 mph - N/A   Partly Cloudy
11:55 PM 42.8 °F - 42.8 °F 100% 30.05 in 1.0 mi Calm Calm - N/A   Overcast